Accueil
METAR-TAF:

METAR-TAF

Aéroports :

Paris, Tennessee, États-Unis

latitude: 36-20-18N, longitude: 088-22-58W, altitude: 177 m

Observation

Le bulletin a été fait il y a 20 minutes, à 16:55 UTC
Vent 5 kt de ouest
Température 4°C
Humidité 52%
Pression 1026 hPa
Visibilité: 16.1 km
Ciel couvert à une hauteur de 7000 ft

METAR: KPHT 141655Z AUTO 27005KT 10SM OVC070 04/M05 A3029 RMK A01

Heure: 11:15 (17:15 UTC)


TAF: absent

Observations et prévisions météorologiques de plus de 4000 aéroports (messages METAR et TAF).

Les stations disponibles sont représentées par des disques jaunes et rouges sur la carte.

Passer la souris dessus pour voir le nom de la station.

Cliquer dessus pour voir les observations et prévisions météorologiques.

Pour changer de carte: cliquez sur les boutons verts avec une croix noire pour zoomer, sur le bouton vert avec un tiret pour effectuer un zoom arrière, ou sur les flèches vertes pour les cartes adjacentes.


METAR-TAF: